sensor_id;sensor_type;location;lat;lon;timestamp;P1;durP1;ratioP1;P2;durP2;ratioP2
39822;SDS011;25499;53.958;10.970;2023-08-01T06:35:30;15.73;;;9.23;;
39822;SDS011;25499;53.958;10.970;2023-08-01T06:37:58;10.25;;;8.43;;
39822;SDS011;25499;53.958;10.970;2023-08-01T06:40:25;15.90;;;9.23;;
39822;SDS011;25499;53.958;10.970;2023-08-01T06:42:52;11.77;;;8.82;;
39822;SDS011;25499;53.958;10.970;2023-08-01T06:45:18;13.05;;;8.38;;
39822;SDS011;25499;53.958;10.970;2023-08-01T06:47:45;11.60;;;8.23;;
39822;SDS011;25499;53.958;10.970;2023-08-01T06:50:12;12.57;;;8.55;;
39822;SDS011;25499;53.958;10.970;2023-08-01T06:52:40;10.05;;;7.72;;
39822;SDS011;25499;53.958;10.970;2023-08-01T06:55:07;10.40;;;7.40;;
39822;SDS011;25499;53.958;10.970;2023-08-01T06:57:34;12.30;;;7.80;;
39822;SDS011;25499;53.958;10.970;2023-08-01T07:00:01;11.93;;;7.80;;
39822;SDS011;25499;53.958;10.970;2023-08-01T07:02:27;9.32;;;7.55;;
39822;SDS011;25499;53.958;10.970;2023-08-01T07:04:54;9.32;;;7.15;;
39822;SDS011;25499;53.958;10.970;2023-08-01T07:07:21;12.05;;;7.38;;
39822;SDS011;25499;53.958;10.970;2023-08-01T07:09:49;11.15;;;7.78;;
39822;SDS011;25499;53.958;10.970;2023-08-01T07:12:16;12.95;;;7.07;;
39822;SDS011;25499;53.958;10.970;2023-08-01T07:14:42;12.77;;;7.10;;
39822;SDS011;25499;53.958;10.970;2023-08-01T07:17:09;14.82;;;6.82;;
39822;SDS011;25499;53.958;10.970;2023-08-01T07:19:36;9.20;;;7.05;;
39822;SDS011;25499;53.958;10.970;2023-08-01T07:22:03;9.32;;;6.28;;
39822;SDS011;25499;53.958;10.970;2023-08-01T07:24:30;7.93;;;6.00;;
39822;SDS011;25499;53.958;10.970;2023-08-01T07:26:58;10.60;;;6.80;;
39822;SDS011;25499;53.958;10.970;2023-08-01T07:29:24;8.80;;;5.72;;
39822;SDS011;25499;53.958;10.970;2023-08-01T07:31:51;17.05;;;5.97;;
39822;SDS011;25499;53.958;10.970;2023-08-01T07:34:18;9.63;;;6.18;;
39822;SDS011;25499;53.958;10.970;2023-08-01T07:36:45;9.05;;;5.85;;
39822;SDS011;25499;53.958;10.970;2023-08-01T07:39:13;9.38;;;5.85;;
39822;SDS011;25499;53.958;10.970;2023-08-01T07:41:40;8.88;;;5.97;;
39822;SDS011;25499;53.958;10.970;2023-08-01T07:44:08;6.90;;;5.43;;
39822;SDS011;25499;53.958;10.970;2023-08-01T07:46:35;8.30;;;5.50;;
39822;SDS011;25499;53.958;10.970;2023-08-01T07:49:01;8.07;;;4.85;;
39822;SDS011;25499;53.958;10.970;2023-08-01T07:51:28;7.53;;;5.22;;
39822;SDS011;25499;53.958;10.970;2023-08-01T07:53:55;9.75;;;5.20;;
39822;SDS011;25499;53.958;10.970;2023-08-01T07:56:23;7.47;;;4.57;;
39822;SDS011;25499;53.958;10.970;2023-08-01T07:58:51;8.32;;;4.80;;
39822;SDS011;25499;53.958;10.970;2023-08-01T08:01:19;9.18;;;4.93;;
39822;SDS011;25499;53.958;10.970;2023-08-01T08:03:46;8.25;;;4.72;;
39822;SDS011;25499;53.958;10.970;2023-08-01T08:06:13;6.90;;;4.72;;
39822;SDS011;25499;53.958;10.970;2023-08-01T08:08:39;10.65;;;4.80;;
39822;SDS011;25499;53.958;10.970;2023-08-01T08:11:06;8.90;;;4.63;;
39822;SDS011;25499;53.958;10.970;2023-08-01T08:13:33;8.98;;;3.85;;
39822;SDS011;25499;53.958;10.970;2023-08-01T08:16:00;8.55;;;4.63;;
39822;SDS011;25499;53.958;10.970;2023-08-01T08:18:28;6.82;;;4.30;;
39822;SDS011;25499;53.958;10.970;2023-08-01T08:20:55;10.45;;;4.55;;
39822;SDS011;25499;53.958;10.970;2023-08-01T08:23:21;11.25;;;4.55;;
39822;SDS011;25499;53.958;10.970;2023-08-01T08:25:50;5.50;;;4.30;;
39822;SDS011;25499;53.958;10.970;2023-08-01T08:28:27;8.63;;;4.50;;
39822;SDS011;25499;53.958;10.970;2023-08-01T08:30:54;7.07;;;4.32;;
39822;SDS011;25499;53.958;10.970;2023-08-01T08:33:21;6.18;;;4.30;;
39822;SDS011;25499;53.958;10.970;2023-08-01T08:35:49;8.02;;;4.28;;
39822;SDS011;25499;53.958;10.970;2023-08-01T08:38:16;6.25;;;4.10;;
39822;SDS011;25499;53.958;10.970;2023-08-01T08:40:47;7.53;;;3.90;;
39822;SDS011;25499;53.958;10.970;2023-08-01T08:43:22;5.38;;;4.00;;
39822;SDS011;25499;53.958;10.970;2023-08-01T08:45:49;6.95;;;4.07;;
39822;SDS011;25499;53.958;10.970;2023-08-01T08:48:19;11.30;;;3.97;;
39822;SDS011;25499;53.958;10.970;2023-08-01T08:50:46;8.02;;;3.88;;
39822;SDS011;25499;53.958;10.970;2023-08-01T08:53:15;6.82;;;3.90;;
39822;SDS011;25499;53.958;10.970;2023-08-01T08:55:42;7.72;;;3.80;;
39822;SDS011;25499;53.958;10.970;2023-08-01T08:58:09;6.63;;;3.80;;
39822;SDS011;25499;53.958;10.970;2023-08-01T09:00:36;8.18;;;2.95;;
39822;SDS011;25499;53.958;10.970;2023-08-01T09:03:04;8.77;;;3.58;;
39822;SDS011;25499;53.958;10.970;2023-08-01T09:05:33;5.32;;;2.40;;
39822;SDS011;25499;53.958;10.970;2023-08-01T09:08:07;5.30;;;2.70;;
39822;SDS011;25499;53.958;10.970;2023-08-01T09:10:43;6.55;;;3.08;;
39822;SDS011;25499;53.958;10.970;2023-08-01T09:13:10;7.18;;;2.58;;
39822;SDS011;25499;53.958;10.970;2023-08-01T09:15:36;8.05;;;2.50;;
39822;SDS011;25499;53.958;10.970;2023-08-01T09:18:05;4.35;;;2.30;;
39822;SDS011;25499;53.958;10.970;2023-08-01T09:20:39;6.37;;;2.67;;
39822;SDS011;25499;53.958;10.970;2023-08-01T09:23:08;4.57;;;2.20;;
39822;SDS011;25499;53.958;10.970;2023-08-01T09:25:34;5.07;;;2.47;;
39822;SDS011;25499;53.958;10.970;2023-08-01T09:28:02;7.53;;;2.83;;
39822;SDS011;25499;53.958;10.970;2023-08-01T09:30:30;5.68;;;2.60;;
39822;SDS011;25499;53.958;10.970;2023-08-01T09:32:56;5.30;;;2.78;;
39822;SDS011;25499;53.958;10.970;2023-08-01T09:35:23;3.10;;;2.30;;
39822;SDS011;25499;53.958;10.970;2023-08-01T09:37:50;4.63;;;2.25;;
39822;SDS011;25499;53.958;10.970;2023-08-01T09:40:18;9.57;;;2.63;;
39822;SDS011;25499;53.958;10.970;2023-08-01T09:42:45;5.05;;;2.58;;
39822;SDS011;25499;53.958;10.970;2023-08-01T09:45:14;5.15;;;2.38;;
39822;SDS011;25499;53.958;10.970;2023-08-01T09:47:41;9.35;;;2.80;;
39822;SDS011;25499;53.958;10.970;2023-08-01T09:50:09;4.55;;;2.25;;
39822;SDS011;25499;53.958;10.970;2023-08-01T09:52:36;3.58;;;2.00;;
39822;SDS011;25499;53.958;10.970;2023-08-01T09:55:04;3.60;;;1.95;;
39822;SDS011;25499;53.958;10.970;2023-08-01T09:57:31;5.88;;;2.38;;
39822;SDS011;25499;53.958;10.970;2023-08-01T09:59:59;5.38;;;2.45;;
39822;SDS011;25499;53.958;10.970;2023-08-01T10:02:28;3.30;;;2.22;;
39822;SDS011;25499;53.958;10.970;2023-08-01T10:04:58;5.45;;;2.10;;
39822;SDS011;25499;53.958;10.970;2023-08-01T10:07:28;5.75;;;2.30;;
39822;SDS011;25499;53.958;10.970;2023-08-01T10:09:57;4.80;;;2.08;;
39822;SDS011;25499;53.958;10.970;2023-08-01T10:12:25;5.88;;;2.10;;
39822;SDS011;25499;53.958;10.970;2023-08-01T10:14:53;5.13;;;2.13;;
39822;SDS011;25499;53.958;10.970;2023-08-01T10:17:20;4.65;;;2.40;;
39822;SDS011;25499;53.958;10.970;2023-08-01T10:19:50;4.00;;;1.77;;
39822;SDS011;25499;53.958;10.970;2023-08-01T10:22:16;4.05;;;1.80;;
39822;SDS011;25499;53.958;10.970;2023-08-01T10:24:44;3.42;;;1.90;;
39822;SDS011;25499;53.958;10.970;2023-08-01T10:27:12;6.25;;;1.60;;
39822;SDS011;25499;53.958;10.970;2023-08-01T10:29:39;3.92;;;1.70;;
39822;SDS011;25499;53.958;10.970;2023-08-01T10:32:06;3.58;;;1.77;;
39822;SDS011;25499;53.958;10.970;2023-08-01T10:34:33;3.05;;;1.70;;
39822;SDS011;25499;53.958;10.970;2023-08-01T10:37:02;4.13;;;2.30;;
39822;SDS011;25499;53.958;10.970;2023-08-01T10:39:29;5.18;;;1.90;;
39822;SDS011;25499;53.958;10.970;2023-08-01T10:41:56;4.25;;;2.30;;
39822;SDS011;25499;53.958;10.970;2023-08-01T10:44:25;4.85;;;1.95;;
39822;SDS011;25499;53.958;10.970;2023-08-01T10:46:53;5.03;;;2.13;;
39822;SDS011;25499;53.958;10.970;2023-08-01T10:49:20;5.65;;;2.15;;
39822;SDS011;25499;53.958;10.970;2023-08-01T10:51:59;3.35;;;1.88;;
39822;SDS011;25499;53.958;10.970;2023-08-01T10:54:27;5.22;;;1.88;;
39822;SDS011;25499;53.958;10.970;2023-08-01T10:56:54;3.63;;;1.30;;
39822;SDS011;25499;53.958;10.970;2023-08-01T10:59:23;3.65;;;1.00;;
39822;SDS011;25499;53.958;10.970;2023-08-01T11:01:50;1.77;;;0.80;;
39822;SDS011;25499;53.958;10.970;2023-08-01T11:04:18;2.35;;;1.20;;
39822;SDS011;25499;53.958;10.970;2023-08-01T11:06:47;1.58;;;0.90;;
39822;SDS011;25499;53.958;10.970;2023-08-01T11:09:18;2.53;;;1.08;;
39822;SDS011;25499;53.958;10.970;2023-08-01T11:11:48;2.10;;;0.80;;
39822;SDS011;25499;53.958;10.970;2023-08-01T11:14:16;2.97;;;1.00;;
39822;SDS011;25499;53.958;10.970;2023-08-01T11:16:45;3.58;;;1.05;;
39822;SDS011;25499;53.958;10.970;2023-08-01T11:19:19;1.90;;;0.80;;
39822;SDS011;25499;53.958;10.970;2023-08-01T11:21:47;2.85;;;0.73;;
39822;SDS011;25499;53.958;10.970;2023-08-01T11:24:14;1.80;;;0.93;;
39822;SDS011;25499;53.958;10.970;2023-08-01T11:26:44;1.10;;;0.80;;
39822;SDS011;25499;53.958;10.970;2023-08-01T11:29:14;2.72;;;0.98;;
39822;SDS011;25499;53.958;10.970;2023-08-01T11:31:51;2.85;;;1.10;;
39822;SDS011;25499;53.958;10.970;2023-08-01T11:34:19;4.15;;;1.05;;
39822;SDS011;25499;53.958;10.970;2023-08-01T11:36:46;1.35;;;1.00;;
39822;SDS011;25499;53.958;10.970;2023-08-01T11:39:13;3.65;;;1.02;;
39822;SDS011;25499;53.958;10.970;2023-08-01T11:41:41;3.25;;;1.13;;
39822;SDS011;25499;53.958;10.970;2023-08-01T11:44:08;4.30;;;1.05;;
39822;SDS011;25499;53.958;10.970;2023-08-01T11:46:38;4.18;;;1.17;;
39822;SDS011;25499;53.958;10.970;2023-08-01T11:49:06;1.70;;;0.93;;
39822;SDS011;25499;53.958;10.970;2023-08-01T11:51:38;1.75;;;0.90;;
39822;SDS011;25499;53.958;10.970;2023-08-01T11:54:05;2.90;;;1.10;;
39822;SDS011;25499;53.958;10.970;2023-08-01T11:56:33;1.17;;;0.80;;
39822;SDS011;25499;53.958;10.970;2023-08-01T11:59:00;2.22;;;0.90;;
39822;SDS011;25499;53.958;10.970;2023-08-01T12:01:38;2.38;;;0.77;;
39822;SDS011;25499;53.958;10.970;2023-08-01T12:04:06;6.28;;;0.95;;
39822;SDS011;25499;53.958;10.970;2023-08-01T12:06:33;9.73;;;1.50;;
39822;SDS011;25499;53.958;10.970;2023-08-01T12:09:05;3.95;;;0.95;;
39822;SDS011;25499;53.958;10.970;2023-08-01T12:11:33;2.58;;;0.82;;
39822;SDS011;25499;53.958;10.970;2023-08-01T12:14:03;7.53;;;1.10;;
39822;SDS011;25499;53.958;10.970;2023-08-01T12:16:32;4.40;;;1.05;;
39822;SDS011;25499;53.958;10.970;2023-08-01T12:19:00;3.13;;;1.08;;
39822;SDS011;25499;53.958;10.970;2023-08-01T12:21:26;3.35;;;0.70;;
39822;SDS011;25499;53.958;10.970;2023-08-01T12:23:53;6.50;;;0.88;;
39822;SDS011;25499;53.958;10.970;2023-08-01T12:26:20;1.73;;;0.85;;
39822;SDS011;25499;53.958;10.970;2023-08-01T12:28:47;2.95;;;0.88;;
39822;SDS011;25499;53.958;10.970;2023-08-01T12:31:15;2.75;;;0.88;;
39822;SDS011;25499;53.958;10.970;2023-08-01T12:33:43;2.83;;;0.60;;
39822;SDS011;25499;53.958;10.970;2023-08-01T12:36:11;2.67;;;0.52;;
39822;SDS011;25499;53.958;10.970;2023-08-01T12:38:39;3.90;;;0.70;;
39822;SDS011;25499;53.958;10.970;2023-08-01T12:41:06;2.72;;;0.70;;
39822;SDS011;25499;53.958;10.970;2023-08-01T12:43:33;2.25;;;0.55;;
39822;SDS011;25499;53.958;10.970;2023-08-01T12:46:00;1.58;;;0.60;;
39822;SDS011;25499;53.958;10.970;2023-08-01T12:48:27;3.92;;;0.77;;
39822;SDS011;25499;53.958;10.970;2023-08-01T12:50:54;3.03;;;0.55;;
39822;SDS011;25499;53.958;10.970;2023-08-01T12:53:23;2.03;;;0.60;;
39822;SDS011;25499;53.958;10.970;2023-08-01T12:55:50;1.70;;;0.60;;
39822;SDS011;25499;53.958;10.970;2023-08-01T12:58:18;1.63;;;0.65;;
39822;SDS011;25499;53.958;10.970;2023-08-01T13:00:44;3.10;;;0.85;;
39822;SDS011;25499;53.958;10.970;2023-08-01T13:03:11;1.65;;;0.80;;
39822;SDS011;25499;53.958;10.970;2023-08-01T13:05:39;2.88;;;0.65;;
39822;SDS011;25499;53.958;10.970;2023-08-01T13:08:06;0.88;;;0.60;;
39822;SDS011;25499;53.958;10.970;2023-08-01T13:10:35;1.98;;;0.60;;
39822;SDS011;25499;53.958;10.970;2023-08-01T13:13:03;2.80;;;0.75;;
39822;SDS011;25499;53.958;10.970;2023-08-01T13:15:30;1.92;;;0.50;;
39822;SDS011;25499;53.958;10.970;2023-08-01T13:17:57;1.75;;;0.60;;
39822;SDS011;25499;53.958;10.970;2023-08-01T13:20:24;3.08;;;0.60;;
39822;SDS011;25499;53.958;10.970;2023-08-01T13:22:51;1.23;;;0.60;;
39822;SDS011;25499;53.958;10.970;2023-08-01T13:25:18;1.45;;;0.70;;
39822;SDS011;25499;53.958;10.970;2023-08-01T13:27:46;2.70;;;0.70;;
39822;SDS011;25499;53.958;10.970;2023-08-01T13:30:13;1.75;;;0.63;;
39822;SDS011;25499;53.958;10.970;2023-08-01T13:32:42;1.73;;;0.82;;
39822;SDS011;25499;53.958;10.970;2023-08-01T13:35:09;3.42;;;0.70;;
39822;SDS011;25499;53.958;10.970;2023-08-01T13:37:36;1.33;;;0.55;;
39822;SDS011;25499;53.958;10.970;2023-08-01T13:40:03;1.10;;;0.50;;
39822;SDS011;25499;53.958;10.970;2023-08-01T13:42:31;2.50;;;0.60;;
39822;SDS011;25499;53.958;10.970;2023-08-01T13:44:59;1.92;;;0.50;;
39822;SDS011;25499;53.958;10.970;2023-08-01T13:47:26;1.10;;;0.60;;
39822;SDS011;25499;53.958;10.970;2023-08-01T13:49:53;0.70;;;0.43;;
39822;SDS011;25499;53.958;10.970;2023-08-01T13:52:19;1.05;;;0.80;;
39822;SDS011;25499;53.958;10.970;2023-08-01T13:54:46;1.95;;;0.45;;
39822;SDS011;25499;53.958;10.970;2023-08-01T13:57:13;1.58;;;0.60;;
39822;SDS011;25499;53.958;10.970;2023-08-01T13:59:39;1.20;;;0.50;;
39822;SDS011;25499;53.958;10.970;2023-08-01T14:02:07;2.25;;;0.60;;
39822;SDS011;25499;53.958;10.970;2023-08-01T14:04:34;0.73;;;0.40;;
39822;SDS011;25499;53.958;10.970;2023-08-01T14:07:01;1.30;;;0.47;;
39822;SDS011;25499;53.958;10.970;2023-08-01T14:09:28;1.75;;;0.60;;
39822;SDS011;25499;53.958;10.970;2023-08-01T14:11:57;2.10;;;0.50;;
39822;SDS011;25499;53.958;10.970;2023-08-01T14:14:24;1.80;;;0.50;;
39822;SDS011;25499;53.958;10.970;2023-08-01T14:16:50;0.77;;;0.57;;
39822;SDS011;25499;53.958;10.970;2023-08-01T14:19:18;0.85;;;0.50;;
39822;SDS011;25499;53.958;10.970;2023-08-01T14:21:45;3.33;;;0.65;;
39822;SDS011;25499;53.958;10.970;2023-08-01T14:24:12;1.13;;;0.50;;
39822;SDS011;25499;53.958;10.970;2023-08-01T14:26:39;2.15;;;0.43;;
39822;SDS011;25499;53.958;10.970;2023-08-01T14:29:06;2.15;;;0.50;;
39822;SDS011;25499;53.958;10.970;2023-08-01T14:31:33;0.73;;;0.40;;
39822;SDS011;25499;53.958;10.970;2023-08-01T14:33:59;2.53;;;0.50;;
39822;SDS011;25499;53.958;10.970;2023-08-01T14:36:28;1.58;;;0.40;;
39822;SDS011;25499;53.958;10.970;2023-08-01T14:38:54;1.85;;;0.20;;
39822;SDS011;25499;53.958;10.970;2023-08-01T14:41:22;0.60;;;0.40;;
39822;SDS011;25499;53.958;10.970;2023-08-01T14:43:48;1.92;;;0.50;;
39822;SDS011;25499;53.958;10.970;2023-08-01T14:46:15;1.38;;;0.40;;
39822;SDS011;25499;53.958;10.970;2023-08-01T14:48:42;2.40;;;0.30;;
39822;SDS011;25499;53.958;10.970;2023-08-01T14:51:08;1.45;;;0.40;;
39822;SDS011;25499;53.958;10.970;2023-08-01T14:53:37;0.63;;;0.32;;
39822;SDS011;25499;53.958;10.970;2023-08-01T14:56:03;2.70;;;0.47;;
39822;SDS011;25499;53.958;10.970;2023-08-01T14:58:31;0.63;;;0.40;;
39822;SDS011;25499;53.958;10.970;2023-08-01T15:01:04;1.35;;;0.30;;
39822;SDS011;25499;53.958;10.970;2023-08-01T15:03:30;1.63;;;0.50;;
39822;SDS011;25499;53.958;10.970;2023-08-01T15:06:04;1.48;;;0.35;;
39822;SDS011;25499;53.958;10.970;2023-08-01T15:08:31;0.50;;;0.30;;
39822;SDS011;25499;53.958;10.970;2023-08-01T15:11:03;0.40;;;0.30;;
39822;SDS011;25499;53.958;10.970;2023-08-01T15:13:31;0.32;;;0.30;;
39822;SDS011;25499;53.958;10.970;2023-08-01T15:15:58;2.25;;;0.30;;
39822;SDS011;25499;53.958;10.970;2023-08-01T15:18:24;1.88;;;0.30;;
39822;SDS011;25499;53.958;10.970;2023-08-01T15:20:51;0.82;;;0.25;;
39822;SDS011;25499;53.958;10.970;2023-08-01T15:23:18;0.35;;;0.28;;
39822;SDS011;25499;53.958;10.970;2023-08-01T15:25:50;0.75;;;0.20;;
39822;SDS011;25499;53.958;10.970;2023-08-01T15:28:19;1.73;;;0.60;;
39822;SDS011;25499;53.958;10.970;2023-08-01T15:30:46;0.30;;;0.20;;
39822;SDS011;25499;53.958;10.970;2023-08-01T15:33:13;0.57;;;0.22;;
39822;SDS011;25499;53.958;10.970;2023-08-01T15:35:41;0.60;;;0.30;;
39822;SDS011;25499;53.958;10.970;2023-08-01T15:38:09;1.77;;;0.20;;
39822;SDS011;25499;53.958;10.970;2023-08-01T15:40:36;0.43;;;0.25;;
39822;SDS011;25499;53.958;10.970;2023-08-01T15:43:02;0.73;;;0.22;;
39822;SDS011;25499;53.958;10.970;2023-08-01T15:45:30;1.58;;;1.02;;
39822;SDS011;25499;53.958;10.970;2023-08-01T15:47:57;0.60;;;0.30;;
39822;SDS011;25499;53.958;10.970;2023-08-01T15:50:24;1.27;;;0.40;;
39822;SDS011;25499;53.958;10.970;2023-08-01T15:52:50;0.32;;;0.28;;
39822;SDS011;25499;53.958;10.970;2023-08-01T15:55:17;1.75;;;0.90;;
39822;SDS011;25499;53.958;10.970;2023-08-01T15:57:44;0.47;;;0.30;;
39822;SDS011;25499;53.958;10.970;2023-08-01T16:00:11;0.50;;;0.30;;
39822;SDS011;25499;53.958;10.970;2023-08-01T16:02:39;1.08;;;0.28;;
39822;SDS011;25499;53.958;10.970;2023-08-01T16:05:06;0.47;;;0.30;;
39822;SDS011;25499;53.958;10.970;2023-08-01T16:07:33;0.82;;;0.20;;
39822;SDS011;25499;53.958;10.970;2023-08-01T16:10:00;0.60;;;0.30;;
39822;SDS011;25499;53.958;10.970;2023-08-01T16:12:27;0.32;;;0.30;;
39822;SDS011;25499;53.958;10.970;2023-08-01T16:14:53;1.45;;;0.35;;
39822;SDS011;25499;53.958;10.970;2023-08-01T16:17:25;1.73;;;0.35;;
39822;SDS011;25499;53.958;10.970;2023-08-01T16:19:54;1.55;;;0.28;;
39822;SDS011;25499;53.958;10.970;2023-08-01T16:22:25;0.75;;;0.30;;
39822;SDS011;25499;53.958;10.970;2023-08-01T16:24:51;1.00;;;0.30;;
39822;SDS011;25499;53.958;10.970;2023-08-01T16:27:18;2.10;;;0.35;;
39822;SDS011;25499;53.958;10.970;2023-08-01T16:29:45;0.80;;;0.40;;
39822;SDS011;25499;53.958;10.970;2023-08-01T16:32:12;0.50;;;0.30;;
39822;SDS011;25499;53.958;10.970;2023-08-01T16:34:39;2.25;;;0.40;;
39822;SDS011;25499;53.958;10.970;2023-08-01T16:37:07;1.90;;;0.40;;
39822;SDS011;25499;53.958;10.970;2023-08-01T16:39:34;1.48;;;0.40;;
39822;SDS011;25499;53.958;10.970;2023-08-01T16:42:00;1.23;;;0.20;;
39822;SDS011;25499;53.958;10.970;2023-08-01T16:44:27;0.95;;;0.38;;
39822;SDS011;25499;53.958;10.970;2023-08-01T16:46:54;0.93;;;0.35;;
39822;SDS011;25499;53.958;10.970;2023-08-01T16:49:20;0.65;;;0.30;;
39822;SDS011;25499;53.958;10.970;2023-08-01T16:51:47;1.33;;;0.30;;
39822;SDS011;25499;53.958;10.970;2023-08-01T16:54:16;0.70;;;0.50;;
39822;SDS011;25499;53.958;10.970;2023-08-01T16:56:43;2.65;;;0.50;;
39822;SDS011;25499;53.958;10.970;2023-08-01T16:59:10;5.47;;;0.77;;
39822;SDS011;25499;53.958;10.970;2023-08-01T17:01:37;1.95;;;0.40;;
39822;SDS011;25499;53.958;10.970;2023-08-01T17:04:04;3.05;;;0.57;;
39822;SDS011;25499;53.958;10.970;2023-08-01T17:06:32;3.33;;;0.50;;
39822;SDS011;25499;53.958;10.970;2023-08-01T17:08:59;1.80;;;0.50;;
39822;SDS011;25499;53.958;10.970;2023-08-01T17:11:27;2.60;;;0.60;;
39822;SDS011;25499;53.958;10.970;2023-08-01T17:13:53;3.63;;;0.80;;
39822;SDS011;25499;53.958;10.970;2023-08-01T17:16:20;2.95;;;0.50;;
39822;SDS011;25499;53.958;10.970;2023-08-01T17:18:47;4.90;;;0.85;;
39822;SDS011;25499;53.958;10.970;2023-08-01T17:21:14;2.00;;;0.47;;
39822;SDS011;25499;53.958;10.970;2023-08-01T17:23:45;3.45;;;0.70;;
39822;SDS011;25499;53.958;10.970;2023-08-01T17:26:12;1.85;;;0.52;;
39822;SDS011;25499;53.958;10.970;2023-08-01T17:28:40;2.42;;;0.60;;
39822;SDS011;25499;53.958;10.970;2023-08-01T17:31:08;3.72;;;0.77;;
39822;SDS011;25499;53.958;10.970;2023-08-01T17:36:05;1.38;;;0.60;;
39822;SDS011;25499;53.958;10.970;2023-08-01T17:38:32;4.68;;;0.60;;
39822;SDS011;25499;53.958;10.970;2023-08-01T17:41:12;2.38;;;0.60;;
39822;SDS011;25499;53.958;10.970;2023-08-01T17:43:43;3.92;;;0.45;;
39822;SDS011;25499;53.958;10.970;2023-08-01T17:46:10;1.42;;;0.50;;
39822;SDS011;25499;53.958;10.970;2023-08-01T17:48:37;2.13;;;0.52;;
39822;SDS011;25499;53.958;10.970;2023-08-01T17:51:04;5.55;;;0.90;;
39822;SDS011;25499;53.958;10.970;2023-08-01T17:53:33;5.05;;;0.80;;
39822;SDS011;25499;53.958;10.970;2023-08-01T17:56:00;4.03;;;0.65;;
39822;SDS011;25499;53.958;10.970;2023-08-01T17:58:28;1.98;;;0.55;;
39822;SDS011;25499;53.958;10.970;2023-08-01T18:00:56;2.65;;;0.70;;
39822;SDS011;25499;53.958;10.970;2023-08-01T18:03:23;6.45;;;0.85;;
39822;SDS011;25499;53.958;10.970;2023-08-01T18:05:49;4.10;;;0.60;;
39822;SDS011;25499;53.958;10.970;2023-08-01T18:08:16;4.53;;;0.82;;
39822;SDS011;25499;53.958;10.970;2023-08-01T18:10:43;2.45;;;0.90;;
39822;SDS011;25499;53.958;10.970;2023-08-01T18:13:09;2.08;;;0.60;;
39822;SDS011;25499;53.958;10.970;2023-08-01T18:15:36;2.25;;;0.70;;
39822;SDS011;25499;53.958;10.970;2023-08-01T18:18:05;4.35;;;0.98;;
39822;SDS011;25499;53.958;10.970;2023-08-01T18:20:32;2.38;;;0.70;;
39822;SDS011;25499;53.958;10.970;2023-08-01T18:22:59;3.60;;;1.25;;
39822;SDS011;25499;53.958;10.970;2023-08-01T18:25:26;1.88;;;0.80;;
39822;SDS011;25499;53.958;10.970;2023-08-01T18:27:53;6.32;;;0.80;;
39822;SDS011;25499;53.958;10.970;2023-08-01T18:30:20;4.38;;;0.80;;
39822;SDS011;25499;53.958;10.970;2023-08-01T18:32:46;3.60;;;0.90;;
39822;SDS011;25499;53.958;10.970;2023-08-01T18:35:14;4.30;;;1.00;;
39822;SDS011;25499;53.958;10.970;2023-08-01T18:37:42;4.50;;;0.82;;
39822;SDS011;25499;53.958;10.970;2023-08-01T18:40:10;5.57;;;0.85;;
39822;SDS011;25499;53.958;10.970;2023-08-01T18:42:39;5.57;;;0.90;;
39822;SDS011;25499;53.958;10.970;2023-08-01T18:45:06;3.42;;;0.82;;
39822;SDS011;25499;53.958;10.970;2023-08-01T18:47:34;1.85;;;0.88;;
39822;SDS011;25499;53.958;10.970;2023-08-01T18:50:00;2.33;;;0.70;;
39822;SDS011;25499;53.958;10.970;2023-08-01T18:52:28;1.92;;;0.98;;
39822;SDS011;25499;53.958;10.970;2023-08-01T18:54:57;4.93;;;1.10;;
39822;SDS011;25499;53.958;10.970;2023-08-01T18:57:24;2.03;;;0.80;;
39822;SDS011;25499;53.958;10.970;2023-08-01T18:59:51;4.57;;;0.88;;
39822;SDS011;25499;53.958;10.970;2023-08-01T19:02:17;3.20;;;0.80;;
39822;SDS011;25499;53.958;10.970;2023-08-01T19:04:44;5.43;;;0.90;;
39822;SDS011;25499;53.958;10.970;2023-08-01T19:07:12;5.53;;;1.00;;
39822;SDS011;25499;53.958;10.970;2023-08-01T19:09:40;7.20;;;0.98;;
39822;SDS011;25499;53.958;10.970;2023-08-01T19:12:07;3.72;;;0.95;;
39822;SDS011;25499;53.958;10.970;2023-08-01T19:14:35;2.30;;;0.88;;
39822;SDS011;25499;53.958;10.970;2023-08-01T19:17:01;3.97;;;1.10;;
39822;SDS011;25499;53.958;10.970;2023-08-01T19:19:28;3.53;;;1.23;;
39822;SDS011;25499;53.958;10.970;2023-08-01T19:21:55;3.47;;;1.10;;
39822;SDS011;25499;53.958;10.970;2023-08-01T19:24:22;5.15;;;1.00;;
39822;SDS011;25499;53.958;10.970;2023-08-01T19:26:50;2.70;;;0.90;;
39822;SDS011;25499;53.958;10.970;2023-08-01T19:29:16;1.75;;;0.90;;
39822;SDS011;25499;53.958;10.970;2023-08-01T19:31:43;6.20;;;1.20;;
39822;SDS011;25499;53.958;10.970;2023-08-01T19:34:10;2.28;;;1.10;;
39822;SDS011;25499;53.958;10.970;2023-08-01T19:36:37;6.32;;;1.10;;
39822;SDS011;25499;53.958;10.970;2023-08-01T19:39:04;6.28;;;1.15;;
39822;SDS011;25499;53.958;10.970;2023-08-01T19:41:31;3.22;;;1.20;;
39822;SDS011;25499;53.958;10.970;2023-08-01T19:44:00;4.55;;;0.90;;
39822;SDS011;25499;53.958;10.970;2023-08-01T19:46:27;5.72;;;1.00;;
39822;SDS011;25499;53.958;10.970;2023-08-01T19:48:53;4.78;;;1.00;;
39822;SDS011;25499;53.958;10.970;2023-08-01T19:51:20;5.07;;;1.17;;
39822;SDS011;25499;53.958;10.970;2023-08-01T19:53:47;3.10;;;1.05;;
39822;SDS011;25499;53.958;10.970;2023-08-01T19:56:14;5.70;;;1.00;;
39822;SDS011;25499;53.958;10.970;2023-08-01T19:58:42;6.15;;;1.17;;
39822;SDS011;25499;53.958;10.970;2023-08-01T20:01:11;3.35;;;1.05;;
39822;SDS011;25499;53.958;10.970;2023-08-01T20:03:38;4.00;;;0.85;;
39822;SDS011;25499;53.958;10.970;2023-08-01T20:06:05;4.95;;;1.23;;
39822;SDS011;25499;53.958;10.970;2023-08-01T20:08:32;3.38;;;1.17;;
39822;SDS011;25499;53.958;10.970;2023-08-01T20:11:00;2.08;;;1.10;;
39822;SDS011;25499;53.958;10.970;2023-08-01T20:13:27;2.65;;;1.15;;
